Time;durP1;ratioP1;P1;durP2;ratioP2;P2;SDS_P1;SDS_P2;PMS_P1;PMS_P2;Temp;Humidity;BMP_temperature;BMP_pressure;BME280_temperature;BME280_humidity;BME280_pressure;Samples;Min_cycle;Max_cycle;Signal;HPM_P1;HPM_P2
2021/07/12 00:01:05;;;;;;;3.67;2.58;;;24.40;93.50;;;;;;5042162;28;20179;-75
2021/07/12 00:03:31;;;;;;;28.03;3.50;;;24.50;93.60;;;;;;5057208;28;20207;-75
2021/07/12 00:05:57;;;;;;;5.03;2.72;;;24.50;93.70;;;;;;5041928;28;20184;-74
2021/07/12 00:08:24;;;;;;;5.13;3.15;;;24.50;93.80;;;;;;5036725;28;20886;-76
2021/07/12 00:10:51;;;;;;;6.57;2.90;;;24.50;93.80;;;;;;5037925;28;20191;-75
2021/07/12 00:13:18;;;;;;;8.30;2.78;;;24.50;93.70;;;;;;5024127;28;20218;-75
2021/07/12 00:15:45;;;;;;;4.13;2.85;;;24.50;93.90;;;;;;5039889;28;20229;-74
2021/07/12 00:18:11;;;;;;;7.83;2.73;;;24.40;93.70;;;;;;5043985;28;20261;-75
2021/07/12 00:20:39;;;;;;;4.57;3.00;;;24.30;93.70;;;;;;5023937;28;20191;-75
2021/07/12 00:23:05;;;;;;;5.00;2.85;;;24.20;93.90;;;;;;5022635;28;20280;-75
2021/07/12 00:25:32;;;;;;;6.30;2.70;;;24.20;94.00;;;;;;5036863;28;20675;-75
2021/07/12 00:27:59;;;;;;;7.32;3.00;;;24.10;93.90;;;;;;5043621;28;20263;-75
2021/07/12 00:30:27;;;;;;;4.43;2.80;;;24.10;93.80;;;;;;5023913;28;20242;-76
2021/07/12 00:32:55;;;;;;;4.15;2.60;;;24.10;94.00;;;;;;5042949;28;20201;-76
2021/07/12 00:35:23;;;;;;;7.43;2.40;;;24.10;93.90;;;;;;5059235;28;20183;-75
2021/07/12 00:37:53;;;;;;;3.72;2.67;;;24.00;93.80;;;;;;5026234;28;20366;-76
2021/07/12 00:40:22;;;;;;;6.05;2.70;;;24.10;94.00;;;;;;5055283;28;20244;-74
2021/07/12 00:42:50;;;;;;;8.00;2.83;;;24.10;94.00;;;;;;5044286;28;20960;-76
2021/07/12 00:45:25;;;;;;;6.18;2.63;;;24.10;94.10;;;;;;5037071;28;20249;-74
2021/07/12 00:47:53;;;;;;;5.93;2.93;;;24.10;94.10;;;;;;5053673;28;20193;-75
2021/07/12 00:50:24;;;;;;;5.43;2.67;;;24.10;94.10;;;;;;5036673;28;20991;-75
2021/07/12 00:52:52;;;;;;;7.87;2.63;;;24.10;94.20;;;;;;5037168;28;20254;-74
2021/07/12 00:55:35;;;;;;;5.38;2.72;;;24.10;94.20;;;;;;5028476;28;20603;-75
2021/07/12 00:58:07;;;;;;;4.03;2.80;;;24.10;94.40;;;;;;5037444;28;20298;-75
2021/07/12 01:00:34;;;;;;;4.67;3.00;;;24.20;94.30;;;;;;5041118;28;20183;-74
2021/07/12 01:03:01;;;;;;;4.93;2.90;;;24.20;94.50;;;;;;5038018;28;20611;-75
2021/07/12 01:05:31;;;;;;;3.50;2.37;;;24.20;94.50;;;;;;5041017;28;20189;-75
2021/07/12 01:08:01;;;;;;;5.33;2.83;;;24.10;94.70;;;;;;5043883;28;20187;-75
2021/07/12 01:10:30;;;;;;;4.85;2.85;;;24.10;94.50;;;;;;5020815;28;20310;-75
2021/07/12 01:13:03;;;;;;;6.33;2.70;;;24.00;94.50;;;;;;5031680;28;20659;-75
2021/07/12 01:15:49;;;;;;;4.40;2.87;;;24.00;94.60;;;;;;5041532;28;20186;-75
2021/07/12 01:18:41;;;;;;;4.43;2.87;;;23.90;94.50;;;;;;5034734;28;20188;-74
2021/07/12 01:22:02;;;;;;;4.97;3.10;;;23.90;94.60;;;;;;5040647;28;20194;-75
2021/07/12 01:24:53;;;;;;;3.03;2.30;;;23.90;94.60;;;;;;5006026;28;20358;-75
2021/07/12 01:27:56;;;;;;;4.93;2.60;;;23.90;94.70;;;;;;5028495;28;20203;-75
2021/07/12 01:30:57;;;;;;;3.73;2.70;;;23.90;94.70;;;;;;5025186;28;20221;-75
2021/07/12 01:33:42;;;;;;;6.73;2.60;;;23.90;94.80;;;;;;5041362;28;20197;-75
2021/07/12 01:36:33;;;;;;;6.40;2.77;;;23.90;94.70;;;;;;5041011;28;20640;-75
2021/07/12 01:39:15;;;;;;;4.20;2.90;;;23.90;94.70;;;;;;5022393;28;20188;-74
2021/07/12 01:42:07;;;;;;;5.73;2.73;;;23.80;94.70;;;;;;5040636;28;20291;-75
2021/07/12 01:44:56;;;;;;;5.50;2.27;;;23.80;94.80;;;;;;5039303;28;20302;-75
2021/07/12 01:47:41;;;;;;;5.07;2.73;;;23.80;95.00;;;;;;5036939;28;20206;-75
2021/07/12 01:50:30;;;;;;;3.13;2.70;;;23.80;95.00;;;;;;5037552;28;20719;-75
2021/07/12 01:53:50;;;;;;;3.77;2.80;;;23.80;95.20;;;;;;5045559;28;20184;-76
2021/07/12 01:56:46;;;;;;;5.80;2.87;;;23.80;95.20;;;;;;5044733;28;20968;-75
2021/07/12 01:59:31;;;;;;;6.37;2.70;;;23.80;95.20;;;;;;5045740;28;20222;-75
2021/07/12 02:02:01;;;;;;;4.80;2.90;;;23.80;95.30;;;;;;5042791;28;20561;-75
2021/07/12 02:04:31;;;;;;;4.45;2.70;;;23.80;95.40;;;;;;5045027;28;20218;-75
2021/07/12 02:06:59;;;;;;;5.47;2.63;;;23.80;95.30;;;;;;5042359;28;20294;-75
2021/07/12 02:09:27;;;;;;;5.30;2.90;;;23.80;95.50;;;;;;5043566;28;20171;-75
2021/07/12 02:11:59;;;;;;;8.50;3.03;;;23.80;95.40;;;;;;5029138;28;20183;-75
2021/07/12 02:14:28;;;;;;;4.70;2.80;;;23.80;95.40;;;;;;5030486;28;20201;-75
2021/07/12 02:16:58;;;;;;;4.03;3.03;;;23.80;95.30;;;;;;5038857;28;20606;-74
2021/07/12 02:19:31;;;;;;;6.43;3.20;;;23.80;95.40;;;;;;5040261;28;20524;-75
2021/07/12 02:22:01;;;;;;;9.13;2.97;;;23.80;95.40;;;;;;5047945;28;20187;-75
2021/07/12 02:24:30;;;;;;;9.53;2.80;;;23.80;95.30;;;;;;5045152;28;20683;-75
2021/07/12 02:26:59;;;;;;;7.67;2.67;;;23.80;95.10;;;;;;5054507;28;20536;-75
2021/07/12 02:29:27;;;;;;;6.30;2.80;;;23.80;94.90;;;;;;5038982;28;20672;-74
2021/07/12 02:31:56;;;;;;;4.37;2.50;;;23.90;94.90;;;;;;5025277;28;20188;-75
2021/07/12 02:34:25;;;;;;;3.10;2.30;;;23.90;94.70;;;;;;5045353;28;20574;-75
2021/07/12 02:36:55;;;;;;;5.47;2.77;;;23.80;94.40;;;;;;5031156;28;20226;-76
2021/07/12 02:39:22;;;;;;;4.73;2.80;;;23.80;94.30;;;;;;5056632;28;20191;-75
2021/07/12 02:41:50;;;;;;;6.77;2.40;;;23.90;94.40;;;;;;5026969;28;20744;-74
2021/07/12 02:44:17;;;;;;;6.27;2.73;;;23.90;94.30;;;;;;5041036;28;20218;-74
2021/07/12 02:46:44;;;;;;;5.83;2.73;;;23.90;94.10;;;;;;5037355;28;20211;-75
2021/07/12 02:49:11;;;;;;;5.23;2.30;;;23.90;94.00;;;;;;5026077;28;20979;-75
2021/07/12 02:51:52;;;;;;;5.80;2.50;;;23.90;93.70;;;;;;5024764;28;20275;-76
2021/07/12 02:54:24;;;;;;;4.22;2.17;;;23.80;94.00;;;;;;5044604;28;20191;-75
2021/07/12 02:56:51;;;;;;;11.93;2.60;;;23.90;93.60;;;;;;5044892;28;20194;-76
2021/07/12 02:59:18;;;;;;;3.50;2.20;;;23.80;93.60;;;;;;5030378;28;20202;-74
2021/07/12 03:01:44;;;;;;;4.47;2.30;;;23.90;93.70;;;;;;5057812;28;20187;-75
2021/07/12 03:04:10;;;;;;;5.20;2.60;;;23.90;93.70;;;;;;5042467;28;20211;-76
2021/07/12 03:06:38;;;;;;;8.63;3.00;;;23.90;93.70;;;;;;5025357;28;20253;-76
2021/07/12 03:09:11;;;;;;;6.10;2.27;;;23.90;93.80;;;;;;5042012;28;20176;-75
2021/07/12 03:11:54;;;;;;;7.53;2.70;;;23.90;93.80;;;;;;5046128;28;20188;-75
2021/07/12 03:14:33;;;;;;;3.73;2.33;;;23.80;93.70;;;;;;5024478;28;20912;-75
2021/07/12 03:17:02;;;;;;;4.43;2.40;;;23.80;93.90;;;;;;5042023;28;20329;-76
2021/07/12 03:19:35;;;;;;;3.80;2.70;;;23.90;93.90;;;;;;5039933;28;20378;-75
2021/07/12 03:22:08;;;;;;;6.50;2.30;;;23.90;93.80;;;;;;5039492;28;20179;-75
2021/07/12 03:24:40;;;;;;;2.50;2.30;;;23.90;93.90;;;;;;5059201;28;20191;-75
2021/07/12 03:27:10;;;;;;;6.37;2.60;;;24.00;94.10;;;;;;5027542;28;20206;-75
2021/07/12 03:29:39;;;;;;;4.37;2.70;;;24.00;94.00;;;;;;5019812;28;20674;-75
2021/07/12 03:32:08;;;;;;;2.60;2.33;;;24.00;94.20;;;;;;5041318;28;20260;-74
2021/07/12 03:34:35;;;;;;;4.83;2.40;;;24.10;94.40;;;;;;5025340;28;20187;-76
2021/07/12 03:37:02;;;;;;;5.63;2.73;;;24.10;94.40;;;;;;5044521;28;20180;-77
2021/07/12 03:39:29;;;;;;;5.70;2.80;;;24.10;94.30;;;;;;5025255;28;20184;-75
2021/07/12 03:41:58;;;;;;;3.50;2.43;;;24.10;94.30;;;;;;5023689;28;20191;-76
2021/07/12 03:44:25;;;;;;;4.97;2.40;;;24.20;94.20;;;;;;5021295;28;20226;-74
2021/07/12 03:46:51;;;;;;;4.00;2.80;;;24.20;94.10;;;;;;5042581;28;20203;-76
2021/07/12 03:49:19;;;;;;;3.90;2.60;;;24.20;94.20;;;;;;5059101;28;20214;-74
2021/07/12 03:51:51;;;;;;;4.60;2.10;;;24.20;94.20;;;;;;5041565;28;20180;-75
2021/07/12 03:54:18;;;;;;;4.03;2.50;;;24.30;94.30;;;;;;5041074;28;20184;-74
2021/07/12 03:56:45;;;;;;;5.88;2.65;;;24.20;94.40;;;;;;5058764;28;20218;-75
2021/07/12 03:59:11;;;;;;;7.40;2.30;;;24.30;94.50;;;;;;5023400;28;20210;-74
2021/07/12 04:01:38;;;;;;;7.28;2.83;;;24.30;94.50;;;;;;5047964;28;20184;-76
2021/07/12 04:04:04;;;;;;;7.60;2.73;;;24.30;94.60;;;;;;5039196;28;20199;-77
2021/07/12 04:06:31;;;;;;;7.03;2.80;;;24.30;94.80;;;;;;5037069;28;20917;-74
2021/07/12 04:08:58;;;;;;;16.03;3.57;;;24.30;95.00;;;;;;5024137;28;20207;-75
2021/07/12 04:11:34;;;;;;;9.87;3.13;;;24.30;95.00;;;;;;5021022;28;20525;-75
2021/07/12 04:14:02;;;;;;;9.50;3.05;;;24.30;95.10;;;;;;5024614;28;20192;-75
2021/07/12 04:16:29;;;;;;;7.93;3.07;;;24.40;95.30;;;;;;5043395;28;20183;-75
2021/07/12 04:18:55;;;;;;;7.05;2.97;;;24.40;95.50;;;;;;5039050;28;20188;-76
2021/07/12 04:21:21;;;;;;;4.00;2.80;;;24.50;95.30;;;;;;5055364;28;20184;-76
2021/07/12 04:23:48;;;;;;;4.50;2.60;;;24.50;95.30;;;;;;5042449;28;20683;-74
2021/07/12 04:26:14;;;;;;;5.97;3.43;;;24.50;95.80;;;;;;5045700;28;20183;-75
2021/07/12 04:28:41;;;;;;;5.57;2.92;;;24.50;96.00;;;;;;5042673;28;20218;-75
2021/07/12 04:31:07;;;;;;;4.35;3.00;;;24.60;95.60;;;;;;5016177;28;20229;-76
2021/07/12 04:33:33;;;;;;;3.78;3.08;;;24.60;95.50;;;;;;5041284;28;20184;-75
2021/07/12 04:35:59;;;;;;;7.53;2.90;;;24.60;95.40;;;;;;5026053;28;20268;-75
2021/07/12 04:38:26;;;;;;;4.57;3.00;;;24.70;95.40;;;;;;5041439;28;20188;-74
2021/07/12 04:40:52;;;;;;;8.95;2.88;;;24.70;95.50;;;;;;5047520;28;20686;-74
2021/07/12 04:43:18;;;;;;;5.05;3.15;;;24.80;95.40;;;;;;5038944;28;20311;-76
2021/07/12 04:45:45;;;;;;;4.95;3.25;;;24.80;95.60;;;;;;5022562;28;20218;-75
2021/07/12 04:48:11;;;;;;;4.30;3.10;;;24.90;95.80;;;;;;5042208;28;20249;-77
2021/07/12 04:50:37;;;;;;;4.40;3.40;;;24.90;95.70;;;;;;5042873;28;20191;-75
2021/07/12 04:53:04;;;;;;;11.10;3.28;;;25.00;96.20;;;;;;5029809;28;20644;-75
2021/07/12 04:55:30;;;;;;;3.42;3.13;;;25.00;96.00;;;;;;5040049;28;20269;-74
2021/07/12 04:57:57;;;;;;;3.95;3.25;;;25.10;96.20;;;;;;5041346;28;20179;-75
2021/07/12 05:00:23;;;;;;;5.30;2.88;;;25.10;96.50;;;;;;5024211;28;20552;-75
2021/07/12 05:02:50;;;;;;;3.20;2.83;;;25.10;96.50;;;;;;5033257;28;20214;-75
2021/07/12 05:05:17;;;;;;;8.90;2.70;;;25.30;96.60;;;;;;5039512;28;20960;-75
2021/07/12 05:07:44;;;;;;;3.63;2.58;;;25.30;96.50;;;;;;5042656;28;20540;-75
2021/07/12 05:10:12;;;;;;;8.77;2.72;;;25.30;96.70;;;;;;5042699;28;20187;-76
2021/07/12 05:12:39;;;;;;;8.07;2.70;;;25.40;96.70;;;;;;5043854;28;20648;-75
2021/07/12 05:15:08;;;;;;;4.40;2.80;;;25.70;95.70;;;;;;5042755;28;20555;-74
2021/07/12 05:17:37;;;;;;;4.13;2.53;;;25.60;95.40;;;;;;5056643;28;20190;-75
2021/07/12 05:20:06;;;;;;;6.22;2.45;;;25.80;95.90;;;;;;5043652;28;20272;-75
2021/07/12 05:22:32;;;;;;;6.28;2.63;;;26.10;93.10;;;;;;5039781;28;20368;-75
2021/07/12 05:24:59;;;;;;;7.03;2.75;;;26.10;93.70;;;;;;5040947;28;20180;-76
2021/07/12 05:27:25;;;;;;;5.00;2.72;;;26.30;92.60;;;;;;5032493;28;20207;-76
2021/07/12 05:29:52;;;;;;;6.30;2.38;;;26.20;94.80;;;;;;5046280;28;20183;-77
2021/07/12 05:32:18;;;;;;;6.25;2.40;;;26.30;93.90;;;;;;5040413;28;20214;-77
2021/07/12 05:34:45;;;;;;;5.15;2.65;;;26.50;92.90;;;;;;5054644;28;20184;-75
2021/07/12 05:37:11;;;;;;;8.93;3.13;;;26.70;92.10;;;;;;5044482;28;20210;-76
2021/07/12 05:39:38;;;;;;;10.88;2.83;;;26.80;92.40;;;;;;5042173;28;20183;-75
2021/07/12 05:42:04;;;;;;;12.30;3.17;;;27.00;92.60;;;;;;5038548;28;20195;-75
2021/07/12 05:44:31;;;;;;;11.52;3.60;;;27.00;93.60;;;;;;5027239;28;20175;-76
2021/07/12 05:46:57;;;;;;;5.82;2.83;;;27.10;93.60;;;;;;5042318;28;20199;-76
2021/07/12 05:49:23;;;;;;;10.98;2.88;;;27.20;93.50;;;;;;5039420;28;20195;-75
2021/07/12 05:51:50;;;;;;;7.53;2.58;;;27.20;92.80;;;;;;5031135;28;20304;-75
2021/07/12 05:54:16;;;;;;;6.60;3.50;;;27.10;93.30;;;;;;5046139;28;20310;-75
2021/07/12 05:56:42;;;;;;;9.98;3.22;;;27.20;94.20;;;;;;5043387;28;20310;-77
2021/07/12 05:59:09;;;;;;;5.03;3.22;;;27.20;95.00;;;;;;5061066;28;20420;-76
2021/07/12 06:01:35;;;;;;;9.60;3.72;;;27.30;95.90;;;;;;5041604;28;20633;-76
2021/07/12 06:04:01;;;;;;;12.98;3.60;;;27.40;96.10;;;;;;5036163;28;20267;-76
2021/07/12 06:06:27;;;;;;;7.70;3.25;;;27.50;96.10;;;;;;5058560;28;20195;-75
2021/07/12 06:08:55;;;;;;;7.07;2.95;;;27.60;95.70;;;;;;5063897;28;20191;-75
2021/07/12 06:11:21;;;;;;;7.63;2.53;;;27.70;94.50;;;;;;5042322;28;20260;-76
2021/07/12 06:13:48;;;;;;;8.63;2.90;;;27.80;93.00;;;;;;5047265;28;20273;-75
2021/07/12 06:16:15;;;;;;;7.68;2.95;;;27.80;93.50;;;;;;5043854;28;20206;-76
2021/07/12 06:18:42;;;;;;;2.88;2.33;;;27.80;94.20;;;;;;5044160;28;20191;-76
2021/07/12 06:21:08;;;;;;;8.98;2.72;;;27.90;93.80;;;;;;5042828;28;20179;-75
2021/07/12 06:23:34;;;;;;;6.22;2.78;;;27.90;93.90;;;;;;5041650;28;20203;-75
2021/07/12 06:26:01;;;;;;;9.45;2.83;;;28.00;92.80;;;;;;5025733;28;20188;-75
2021/07/12 06:28:27;;;;;;;9.60;3.08;;;28.00;93.20;;;;;;5044533;28;20705;-74
2021/07/12 06:30:53;;;;;;;11.40;3.47;;;28.00;93.70;;;;;;5044085;28;20188;-75
2021/07/12 06:33:21;;;;;;;6.43;2.80;;;28.10;95.00;;;;;;5040425;28;20672;-75
2021/07/12 06:35:48;;;;;;;9.23;3.17;;;28.30;95.20;;;;;;5022011;28;20282;-74
2021/07/12 06:38:14;;;;;;;9.05;3.42;;;28.30;97.10;;;;;;5029624;28;20229;-74
2021/07/12 06:40:40;;;;;;;10.02;3.88;;;28.50;99.90;;;;;;5027085;28;20241;-75
2021/07/12 06:43:06;;;;;;;8.70;3.80;;;28.50;99.90;;;;;;5040944;28;20295;-76
2021/07/12 06:45:33;;;;;;;14.68;4.03;;;28.60;99.90;;;;;;5045319;28;20340;-75
2021/07/12 06:47:59;;;;;;;13.30;4.00;;;28.70;99.90;;;;;;5045286;28;20270;-74
2021/07/12 06:50:25;;;;;;;12.10;4.20;;;28.70;99.90;;;;;;5040731;28;20790;-74
2021/07/12 06:52:52;;;;;;;7.10;3.70;;;28.70;99.90;;;;;;5025472;28;20290;-75
2021/07/12 06:55:18;;;;;;;8.15;3.67;;;28.60;99.90;;;;;;5059409;28;20656;-74
2021/07/12 06:57:45;;;;;;;10.10;4.47;;;28.80;99.90;;;;;;5047880;28;20195;-76
2021/07/12 07:00:12;;;;;;;10.57;3.88;;;28.70;99.90;;;;;;5027655;28;20184;-75
2021/07/12 07:02:39;;;;;;;14.95;3.83;;;28.80;99.90;;;;;;5042647;28;20216;-74
2021/07/12 07:05:08;;;;;;;12.52;4.35;;;28.90;99.90;;;;;;5025967;28;20245;-77
2021/07/12 07:07:36;;;;;;;10.90;4.35;;;28.90;99.90;;;;;;5018886;28;20184;-76
2021/07/12 07:10:08;;;;;;;12.13;4.25;;;28.90;99.90;;;;;;5043897;28;20740;-76
2021/07/12 07:12:34;;;;;;;14.18;4.57;;;28.90;99.90;;;;;;5041639;28;20191;-76
2021/07/12 07:15:02;;;;;;;13.43;4.30;;;28.80;99.90;;;;;;5023339;28;20828;-76
2021/07/12 07:17:29;;;;;;;12.23;4.25;;;29.00;99.90;;;;;;5041640;28;20206;-74
2021/07/12 07:19:56;;;;;;;12.52;4.07;;;29.00;99.90;;;;;;5041791;28;20180;-75
2021/07/12 07:22:22;;;;;;;12.57;4.03;;;29.10;99.90;;;;;;5039925;28;20644;-76
2021/07/12 07:24:49;;;;;;;10.88;4.20;;;29.20;99.90;;;;;;5041983;28;20195;-75
2021/07/12 07:27:17;;;;;;;9.00;4.47;;;29.30;99.90;;;;;;5025891;28;20751;-75
2021/07/12 07:29:46;;;;;;;11.80;3.90;;;29.30;99.90;;;;;;5038151;28;20195;-75
2021/07/12 07:32:13;;;;;;;13.35;4.22;;;29.40;99.90;;;;;;5043365;28;20176;-75
2021/07/12 07:34:40;;;;;;;12.23;3.67;;;29.40;99.90;;;;;;5038509;28;20187;-77
2021/07/12 07:37:08;;;;;;;6.05;3.55;;;29.40;99.90;;;;;;5035133;28;20687;-75
2021/07/12 07:39:36;;;;;;;9.45;3.78;;;29.40;99.90;;;;;;5046711;28;20583;-74
2021/07/12 07:42:04;;;;;;;9.80;4.10;;;29.50;99.90;;;;;;5036947;28;20199;-75
2021/07/12 07:44:30;;;;;;;11.02;4.53;;;29.50;99.90;;;;;;5024663;28;20220;-77
2021/07/12 07:46:57;;;;;;;8.77;4.38;;;29.60;99.90;;;;;;5041445;28;20223;-79
2021/07/12 07:49:23;;;;;;;9.43;4.25;;;29.60;99.90;;;;;;5039976;28;20197;-76
2021/07/12 07:51:50;;;;;;;8.98;4.30;;;29.70;99.90;;;;;;5040558;28;20184;-76
2021/07/12 07:54:17;;;;;;;16.45;4.53;;;29.90;99.90;;;;;;5040865;28;20635;-76
2021/07/12 07:56:43;;;;;;;11.82;4.65;;;29.90;99.90;;;;;;5059771;28;20207;-78
2021/07/12 07:59:10;;;;;;;12.30;4.45;;;29.90;99.90;;;;;;5043236;28;20325;-74
2021/07/12 08:01:37;;;;;;;10.23;4.03;;;29.90;99.90;;;;;;5020733;28;20191;-76
2021/07/12 08:04:03;;;;;;;12.35;4.32;;;30.00;99.90;;;;;;5040184;28;20671;-76
2021/07/12 08:06:30;;;;;;;10.93;4.00;;;30.10;99.90;;;;;;5037711;28;20190;-76
2021/07/12 08:08:56;;;;;;;11.98;4.32;;;30.20;99.90;;;;;;5039679;28;20244;-76
2021/07/12 08:11:23;;;;;;;13.77;4.47;;;30.30;99.90;;;;;;5055908;28;20180;-76
2021/07/12 08:13:49;;;;;;;9.15;3.90;;;30.20;99.90;;;;;;5044424;28;20597;-75
2021/07/12 08:16:16;;;;;;;8.65;4.00;;;30.30;99.90;;;;;;5042314;28;20878;-76
2021/07/12 08:18:43;;;;;;;10.77;4.78;;;30.40;99.90;;;;;;5057577;28;20189;-76
2021/07/12 08:21:13;;;;;;;9.98;4.25;;;30.50;99.90;;;;;;5030455;28;20186;-75
2021/07/12 08:23:43;;;;;;;15.02;4.13;;;30.40;99.90;;;;;;5042092;28;20242;-76
2021/07/12 08:26:12;;;;;;;13.80;4.80;;;30.50;99.90;;;;;;5041513;28;20186;-76
2021/07/12 08:28:41;;;;;;;10.50;4.00;;;30.60;99.90;;;;;;5059430;28;20187;-77
2021/07/12 08:31:09;;;;;;;10.73;4.10;;;30.60;99.90;;;;;;5039144;28;20190;-76
2021/07/12 08:33:36;;;;;;;17.90;4.32;;;30.70;99.90;;;;;;5041300;28;20188;-75
2021/07/12 08:36:02;;;;;;;15.57;4.70;;;30.70;99.90;;;;;;5039938;28;20197;-76
2021/07/12 08:38:28;;;;;;;8.95;4.45;;;30.80;99.90;;;;;;5032121;28;20206;-75
2021/07/12 08:40:57;;;;;;;9.68;4.43;;;30.70;99.90;;;;;;5042205;28;20191;-76
2021/07/12 08:43:24;;;;;;;8.02;4.18;;;30.90;99.90;;;;;;5059845;28;20222;-74
2021/07/12 08:45:51;;;;;;;10.52;5.03;;;30.80;99.90;;;;;;5040246;28;20206;-78
2021/07/12 08:48:18;;;;;;;9.82;4.05;;;31.00;99.90;;;;;;5056051;28;21016;-75
2021/07/12 08:50:48;;;;;;;8.90;4.00;;;31.10;99.90;;;;;;5025497;28;20187;-74
2021/07/12 08:53:16;;;;;;;13.63;4.82;;;31.20;99.90;;;;;;5019318;28;20188;-76
2021/07/12 08:55:44;;;;;;;12.73;4.90;;;31.40;99.90;;;;;;5043022;28;20184;-74
2021/07/12 08:58:26;;;;;;;18.83;4.63;;;31.40;99.90;;;;;;5036072;28;20672;-75
2021/07/12 09:01:05;;;;;;;11.15;4.47;;;31.30;99.90;;;;;;5022667;28;20671;-75
2021/07/12 09:03:46;;;;;;;15.50;4.22;;;31.40;99.90;;;;;;5042564;28;20257;-74
2021/07/12 09:06:25;;;;;;;9.40;4.18;;;31.40;99.90;;;;;;5026659;28;20187;-73
2021/07/12 09:09:04;;;;;;;16.88;4.43;;;31.40;99.90;;;;;;5043019;28;20260;-74
2021/07/12 09:11:32;;;;;;;6.38;3.60;;;31.60;99.90;;;;;;5038765;28;20608;-75
2021/07/12 09:14:05;;;;;;;7.78;3.50;;;31.60;99.90;;;;;;5028136;28;20204;-75
2021/07/12 09:17:02;;;;;;;10.38;3.78;;;31.60;99.10;;;;;;5060523;28;20307;-75
2021/07/12 09:19:35;;;;;;;8.60;4.35;;;31.70;98.50;;;;;;5044564;28;20220;-75
2021/07/12 09:22:13;;;;;;;11.90;4.25;;;31.80;98.00;;;;;;5055678;28;20198;-75
2021/07/12 09:24:56;;;;;;;18.98;4.53;;;32.10;99.50;;;;;;5042522;28;20192;-74
2021/07/12 09:27:30;;;;;;;11.25;4.03;;;32.10;98.40;;;;;;5042460;28;20206;-73
2021/07/12 09:30:16;;;;;;;8.30;3.85;;;32.10;99.90;;;;;;5058511;28;20190;-74
2021/07/12 09:32:47;;;;;;;9.85;4.25;;;32.10;99.50;;;;;;5059568;28;20219;-73
2021/07/12 09:35:18;;;;;;;10.25;4.75;;;32.20;99.90;;;;;;5043915;28;20829;-74
2021/07/12 09:37:57;;;;;;;7.10;3.72;;;32.20;99.90;;;;;;5044985;28;20189;-74
2021/07/12 09:40:24;;;;;;;9.82;4.30;;;32.20;99.90;;;;;;5031991;28;20256;-76
2021/07/12 09:42:52;;;;;;;12.63;4.35;;;32.40;99.90;;;;;;5042714;28;20273;-74
2021/07/12 09:45:22;;;;;;;8.70;4.15;;;32.40;99.90;;;;;;5045510;28;20207;-74
2021/07/12 09:47:51;;;;;;;13.02;4.80;;;32.30;99.90;;;;;;5028993;28;21086;-73
2021/07/12 09:50:21;;;;;;;19.08;4.75;;;32.20;99.90;;;;;;5043939;28;20228;-75
2021/07/12 09:52:54;;;;;;;14.20;4.95;;;32.20;99.90;;;;;;5045824;28;20530;-74
2021/07/12 09:55:24;;;;;;;12.30;4.90;;;32.20;99.90;;;;;;5059146;28;20194;-73
2021/07/12 09:58:17;;;;;;;11.00;4.40;;;32.30;99.90;;;;;;5047323;28;20354;-74
2021/07/12 10:00:51;;;;;;;7.38;4.15;;;32.50;99.90;;;;;;5022942;28;20282;-73
2021/07/12 10:03:22;;;;;;;10.05;4.13;;;32.50;99.90;;;;;;5041615;28;20219;-76
2021/07/12 10:05:51;;;;;;;11.48;4.40;;;32.50;99.90;;;;;;5055592;28;20195;-75
2021/07/12 10:08:18;;;;;;;11.63;4.32;;;32.50;99.90;;;;;;5043048;28;20878;-74
2021/07/12 10:10:45;;;;;;;8.70;4.57;;;32.50;99.90;;;;;;5039680;28;20180;-75
2021/07/12 10:13:14;;;;;;;12.60;4.35;;;32.60;99.90;;;;;;5022289;28;20746;-76
2021/07/12 10:15:41;;;;;;;9.43;4.22;;;32.60;99.90;;;;;;5039735;28;20199;-77
2021/07/12 10:18:10;;;;;;;10.25;4.43;;;32.70;99.90;;;;;;5036871;28;20644;-76
2021/07/12 10:20:38;;;;;;;11.25;4.57;;;32.70;99.90;;;;;;5041981;28;20204;-74
2021/07/12 10:23:07;;;;;;;9.18;3.97;;;32.80;99.90;;;;;;5040288;28;20203;-76
2021/07/12 10:25:36;;;;;;;9.57;4.20;;;32.90;99.90;;;;;;5043838;28;21171;-75
2021/07/12 10:28:07;;;;;;;14.52;5.03;;;32.90;99.90;;;;;;5043124;28;20241;-74
2021/07/12 10:30:50;;;;;;;16.63;4.38;;;33.00;99.90;;;;;;5045241;28;20176;-74
2021/07/12 10:33:29;;;;;;;11.65;5.22;;;33.10;99.90;;;;;;5041993;28;20629;-77
2021/07/12 10:35:57;;;;;;;14.88;4.55;;;33.10;99.90;;;;;;5030657;28;20298;-75
2021/07/12 10:38:39;;;;;;;15.02;5.10;;;33.20;99.90;;;;;;5040114;28;20187;-76
2021/07/12 10:41:23;;;;;;;13.52;4.43;;;33.30;99.90;;;;;;5020426;28;20188;-75
2021/07/12 10:43:58;;;;;;;8.30;4.47;;;33.40;99.50;;;;;;5018126;28;20307;-75
2021/07/12 10:46:28;;;;;;;13.13;4.78;;;33.30;99.90;;;;;;5040194;28;20205;-75
2021/07/12 10:49:05;;;;;;;8.65;4.15;;;33.20;99.90;;;;;;5041647;28;20187;-75
2021/07/12 10:51:41;;;;;;;11.75;4.20;;;33.10;99.60;;;;;;5053633;28;20183;-75
2021/07/12 10:54:11;;;;;;;13.20;3.55;;;33.20;97.80;;;;;;5039373;28;20192;-74
2021/07/12 10:56:57;;;;;;;12.18;4.00;;;33.00;98.60;;;;;;5042942;28;20652;-74
2021/07/12 10:59:38;;;;;;;8.38;3.80;;;33.40;97.20;;;;;;5041320;28;20192;-76
2021/07/12 11:02:24;;;;;;;12.80;4.50;;;33.10;98.80;;;;;;5038328;28;20198;-76
2021/07/12 11:05:06;;;;;;;12.20;4.03;;;33.30;99.90;;;;;;5043943;28;20193;-73
2021/07/12 11:07:50;;;;;;;9.88;4.00;;;33.40;99.90;;;;;;5039084;28;20183;-76
2021/07/12 11:10:27;;;;;;;8.40;4.20;;;33.10;99.90;;;;;;5038158;28;20188;-76
2021/07/12 11:13:05;;;;;;;12.90;4.88;;;33.30;99.90;;;;;;5036487;28;20282;-76
2021/07/12 11:15:36;;;;;;;13.10;5.15;;;33.20;99.90;;;;;;5051308;28;20274;-74
2021/07/12 11:18:10;;;;;;;14.18;4.43;;;33.40;99.90;;;;;;5038607;28;20310;-74
2021/07/12 11:20:48;;;;;;;10.73;4.80;;;33.20;99.90;;;;;;5042797;28;20198;-76
2021/07/12 11:23:53;;;;;;;16.88;5.10;;;33.10;99.90;;;;;;5046432;28;20893;-76
2021/07/12 11:26:32;;;;;;;13.45;4.57;;;33.00;99.90;;;;;;5024195;28;20237;-76
2021/07/12 11:29:10;;;;;;;20.55;5.30;;;33.20;99.90;;;;;;5039663;28;20188;-73
2021/07/12 11:32:07;;;;;;;12.00;4.80;;;33.10;99.90;;;;;;5042179;28;20310;-75
2021/07/12 11:34:47;;;;;;;9.85;4.90;;;33.00;99.90;;;;;;5038324;28;20183;-75
2021/07/12 11:37:25;;;;;;;12.75;4.90;;;33.00;99.90;;;;;;5054054;28;20214;-75
2021/07/12 11:39:58;;;;;;;12.60;4.88;;;33.10;99.90;;;;;;5056681;28;20187;-75
2021/07/12 11:42:39;;;;;;;8.95;5.20;;;33.00;99.90;;;;;;5039022;28;20245;-75
2021/07/12 11:45:19;;;;;;;12.55;5.00;;;32.90;99.90;;;;;;5031348;28;20873;-74
2021/07/12 11:47:53;;;;;;;13.88;5.35;;;32.80;99.90;;;;;;5040023;28;20281;-76
2021/07/12 11:50:25;;;;;;;14.88;5.18;;;33.10;99.90;;;;;;5050720;28;20184;-77
2021/07/12 11:52:57;;;;;;;15.88;5.15;;;33.00;99.90;;;;;;5036333;28;20191;-76
2021/07/12 11:55:32;;;;;;;17.85;5.40;;;33.00;99.90;;;;;;5038328;28;20215;-75
2021/07/12 11:58:04;;;;;;;14.30;5.63;;;32.90;99.90;;;;;;5043494;28;20187;-75
2021/07/12 12:00:49;;;;;;;13.43;5.43;;;33.00;99.90;;;;;;5023682;28;20195;-76
2021/07/12 12:03:16;;;;;;;13.95;5.03;;;33.00;99.90;;;;;;5036314;28;20258;-75
2021/07/12 12:05:45;;;;;;;11.73;4.90;;;33.00;99.90;;;;;;5034810;28;20184;-75
2021/07/12 12:08:17;;;;;;;12.88;5.70;;;33.10;99.90;;;;;;5040725;28;20202;-75
2021/07/12 12:10:45;;;;;;;15.70;4.90;;;32.80;99.90;;;;;;5047842;28;20187;-76
2021/07/12 12:13:20;;;;;;;13.43;5.43;;;33.00;99.90;;;;;;5040568;28;20302;-75
2021/07/12 12:15:53;;;;;;;16.05;5.10;;;32.90;99.90;;;;;;5053963;28;20209;-74
2021/07/12 12:18:27;;;;;;;11.10;5.07;;;32.90;99.90;;;;;;5038589;28;20274;-74
2021/07/12 12:21:00;;;;;;;13.27;5.22;;;33.00;99.90;;;;;;5026898;28;20249;-74
2021/07/12 12:23:32;;;;;;;13.15;4.90;;;33.10;99.90;;;;;;5056435;28;20208;-76
2021/07/12 12:26:05;;;;;;;12.30;4.75;;;33.20;99.90;;;;;;5043509;28;20195;-76
2021/07/12 12:28:50;;;;;;;12.48;4.60;;;33.00;99.90;;;;;;5037744;28;20203;-75
2021/07/12 12:31:29;;;;;;;8.27;4.35;;;32.90;99.90;;;;;;5054706;28;20271;-75
2021/07/12 12:34:00;;;;;;;10.65;4.13;;;32.90;99.90;;;;;;5037406;28;20199;-75
2021/07/12 12:36:34;;;;;;;8.73;4.20;;;33.10;99.90;;;;;;5039104;28;20191;-77
2021/07/12 12:39:17;;;;;;;18.15;5.32;;;33.00;99.90;;;;;;5022330;28;20223;-76
2021/07/12 12:41:57;;;;;;;8.98;4.60;;;33.20;99.90;;;;;;5025743;28;20214;-74
2021/07/12 12:44:40;;;;;;;10.15;4.50;;;33.10;99.90;;;;;;5009164;28;20224;-75
2021/07/12 12:47:07;;;;;;;10.05;4.30;;;33.30;99.10;;;;;;5026279;28;20275;-75
2021/07/12 12:49:37;;;;;;;14.68;4.53;;;33.20;99.10;;;;;;5024174;28;20759;-75
2021/07/12 12:52:15;;;;;;;15.20;4.90;;;33.00;99.90;;;;;;5025100;28;20194;-73
2021/07/12 12:54:46;;;;;;;14.77;4.20;;;33.10;99.50;;;;;;5043427;28;20199;-74
2021/07/12 12:57:13;;;;;;;13.27;4.72;;;33.30;99.10;;;;;;5042464;28;20190;-75
2021/07/12 12:59:43;;;;;;;12.52;4.45;;;33.20;99.60;;;;;;5042178;28;20203;-74
2021/07/12 13:02:20;;;;;;;10.82;4.78;;;33.30;99.30;;;;;;5056943;28;20191;-75
2021/07/12 13:04:55;;;;;;;10.38;4.78;;;33.40;98.60;;;;;;5035158;28;20199;-74